Tipton, KS (67485)

10:14 PM CDT on July 23, 2014 (GMT -0500)
Cawker City (KKSCAWKE2) Elev 1490 ft | 39.51 °N, 98.44 °W | Change Station

Current weather conditions updated 8 seconds ago

Clear
Clear
74.7 °F
Feels Like 76 °F
N
2.7
Wind Variable Wind from ENE
Gusts 4.9 mph

Tomorrow is forecast to be Much Warmer than today.

Today
High -- | Low -- °F
--% Chance of Precip.
Yesterday
High -- | Low -- °F
Precip. -- in
6:26 AM 8:54 PM
Waning Crescent, 7% visible
Pressure 30.09 in
Visibility 10.0 miles
Clouds Clear
Heat Index 76 °F
Dew Point 66 °F
Humidity 74%
Rainfall 0.05 in
Snow Depth Not available.
UV 0 out of 12
Pollen 6.00 out of 12
Air Quality Not available.
Flu Activity Not available.
METAR KRSL 240253Z AUTO 08006KT 10SM CLR 23/18 A3013 RMK AO2 SLP189 T02280178 51011

More Conditions Fewer Conditions

Pressure 30.09 in
Visibility 10.0 miles
Clouds Clear
Heat Index 76 °F
Dew Point 66 °F
Humidity 74%
Rainfall 0.05 in
Snow Depth Not available.
UV 0 out of 12
Pollen 6.00 out of 12
Air Quality Not available.
Flu Activity Not available.
METAR KRSL 240253Z AUTO 08006KT 10SM CLR 23/18 A3013 RMK AO2 SLP189 T02280178 51011

More Conditions Fewer Conditions

10-Day Weather Forecast

Almanac

Astronomy

Jul. 23, 2014 Rise Set
Actual Time 6:26 AM CDT 8:54 PM CDT
Civil Twilight 5:55 AM CDT 9:24 PM CDT
Nautical Twilight 5:17 AM CDT 10:02 PM CDT
Astronomical Twilight 4:34 AM CDT 10:45 PM CDT
Moon 3:46 AM CDT (7/23) 6:24 PM CDT (7/23)
Length of Visible Light 15h 29m
Length of Day
14h 28m
Tomorrow will be 1m 40s shorter.
Waning Crescent, 7% of the Moon is Illuminated
Today
Waning Crescent
Jul 26
New
Aug 3
First Quarter
Aug 10
Full
Aug 17
Last Quarter

Today's Extremes

State Highs State Lows

Community

WunderPhotos

Upload Photos

1,736,866 photos uploaded!

Nearby

Snow Depth

Station Depth Elevation
No new snow has been reported.

Earthquake Activity

City Distance Mag. Time & Date
No recent earthquake activity has been reported nearby.
Minimum magnitude displayed is 2.5.

Coastal Water Temperatures

Place Temperature
No Stations Reporting

Nearby Weather Stations

Station Location Temp. Heat Index Dew Point Humidity Wind Precip. Elev Updated Type
Cawker City, Cawker City, KS 74.7 °F 76 °F 66 °F 74% ENE  at  2.7 mph 0.00 in / hr 1490 ft 10:14 PM CDT Rapid Fire
HADS SOUTH FORK SOLOMON RIVER AT OSBO KS, Osborne, KS 76 °F 74 °F - - North  at  - 0.00 in / hr 1600 ft 9:30 PM CDT MADIS
Main St, Osborne, Osborne, KS 75.0 °F 77 °F 62 °F 63% NE  at  0.0 mph - / hr 1572 ft 10:14 PM CDT Rapid Fire
Center Township, BELOIT, KS 75.4 °F 77 °F 64 °F 69% NE  at  4.0 mph 0.00 in / hr 1504 ft 10:14 PM CDT Normal
Craven's Repair, Luray, KS 77.3 °F 79 °F 63 °F 61% East  at  0.0 mph 0.00 in / hr 1576 ft 10:13 PM CDT Rapid Fire
Waldo, Waldo, KS 74.3 °F 76 °F 63 °F 69% NE  at  0.0 mph 0.00 in / hr 1708 ft 10:13 PM CDT Normal
Craven / Shiroky Farm, Luray, KS 73.9 °F 76 °F 61 °F 65% ENE  at  0.0 mph 0.00 in / hr 1730 ft 10:14 PM CDT Rapid Fire

Show More Stations Show Fewer Stations